createdAt,value
2023-07-20T00:02:17.526Z,99693.75
2023-07-20T00:04:45.166Z,99706.22
2023-07-20T00:07:12.886Z,99683.09
2023-07-20T00:09:40.544Z,99687.28
2023-07-20T00:12:09.509Z,99696.63
2023-07-20T00:14:38.477Z,99691.75
2023-07-20T00:17:06.950Z,99696.38
2023-07-20T00:19:36.025Z,99685.13
2023-07-20T00:22:05.698Z,99693.97
2023-07-20T00:24:34.059Z,99686.06
2023-07-20T00:27:03.825Z,99684.00
2023-07-20T00:29:31.552Z,99692.16
2023-07-20T00:32:00.921Z,99707.13
2023-07-20T00:34:28.650Z,99686.16
2023-07-20T00:36:56.262Z,99681.34
2023-07-20T00:39:23.847Z,99676.59
2023-07-20T00:41:51.786Z,99691.84
2023-07-20T00:44:19.385Z,99690.38
2023-07-20T00:46:47.642Z,99702.38
2023-07-20T00:49:17.289Z,99686.41
2023-07-20T00:51:45.767Z,99689.84
2023-07-20T00:54:13.391Z,99691.06
2023-07-20T00:56:41.400Z,99679.88
2023-07-20T00:59:09.180Z,99711.03
2023-07-20T01:01:36.848Z,99694.59
2023-07-20T01:04:05.288Z,99688.16
2023-07-20T01:06:42.106Z,99686.09
2023-07-20T01:09:16.395Z,99697.97
2023-07-20T01:11:56.244Z,99688.16
2023-07-20T01:14:25.364Z,99692.38
2023-07-20T01:16:53.555Z,99688.81
2023-07-20T01:21:59.079Z,99687.13
2023-07-20T01:25:00.736Z,99676.91
2023-07-20T01:27:48.137Z,99687.06
2023-07-20T01:30:32.385Z,99680.31
2023-07-20T01:33:02.745Z,99667.00
2023-07-20T01:35:32.219Z,99694.47
2023-07-20T01:38:01.445Z,99692.50
2023-07-20T01:40:29.533Z,99691.44
2023-07-20T01:42:57.191Z,99684.25
2023-07-20T01:45:24.784Z,99688.31
2023-07-20T01:47:52.474Z,99691.44
2023-07-20T01:50:21.811Z,99689.06
2023-07-20T01:52:49.418Z,99679.69
2023-07-20T01:55:17.101Z,99683.16
2023-07-20T01:57:44.755Z,99705.69
2023-07-20T02:00:13.646Z,99703.56
2023-07-20T02:02:41.508Z,99685.47
2023-07-20T02:05:09.671Z,99686.91
2023-07-20T02:07:38.649Z,99682.59
2023-07-20T02:10:07.380Z,99703.78
2023-07-20T02:12:35.007Z,99679.75
2023-07-20T02:15:03.320Z,99694.41
2023-07-20T02:17:31.216Z,99713.88
2023-07-20T02:19:59.515Z,99693.53
2023-07-20T02:22:27.205Z,99708.75
2023-07-20T02:24:56.206Z,99682.13
2023-07-20T02:27:23.824Z,99691.22
2023-07-20T02:29:51.861Z,99699.88
2023-07-20T02:32:19.470Z,99695.47
2023-07-20T02:34:47.068Z,99693.22
2023-07-20T02:37:14.689Z,99699.13
2023-07-20T02:39:42.385Z,99688.75
2023-07-20T02:42:11.399Z,99686.41
2023-07-20T02:44:38.984Z,99681.41
2023-07-20T02:47:07.247Z,99697.13
2023-07-20T02:49:34.902Z,99703.41
2023-07-20T02:52:02.959Z,99715.16
2023-07-20T02:54:31.780Z,99701.72
2023-07-20T02:56:59.392Z,99708.00
2023-07-20T02:59:28.354Z,99721.88
2023-07-20T03:01:56.733Z,99716.38
2023-07-20T03:04:25.162Z,99730.50
2023-07-20T03:06:52.936Z,99692.88
2023-07-20T03:09:20.638Z,99722.13
2023-07-20T03:11:48.852Z,99716.50
2023-07-20T03:14:16.418Z,99725.91
2023-07-20T03:16:45.390Z,99718.00
2023-07-20T03:19:13.091Z,99716.81
2023-07-20T03:21:42.124Z,99701.09
2023-07-20T03:24:10.446Z,99711.50
2023-07-20T03:26:38.402Z,99702.22
2023-07-20T03:29:07.727Z,99714.19
2023-07-20T03:31:35.473Z,99710.06
2023-07-20T03:34:04.882Z,99723.81
2023-07-20T03:36:32.696Z,99744.50
2023-07-20T03:39:00.333Z,99743.22
2023-07-20T03:41:27.971Z,99730.47
2023-07-20T03:43:55.562Z,99728.47
2023-07-20T03:46:23.682Z,99751.31
2023-07-20T03:48:51.495Z,99762.81
2023-07-20T03:51:20.496Z,99737.88
2023-07-20T03:53:48.095Z,99745.47
2023-07-20T03:56:15.715Z,99743.06
2023-07-20T03:58:43.325Z,99725.06
2023-07-20T04:01:11.478Z,99741.09
2023-07-20T04:03:39.095Z,99723.88
2023-07-20T04:06:06.796Z,99713.56
2023-07-20T04:08:35.835Z,99710.91
2023-07-20T04:11:03.781Z,99707.88
2023-07-20T04:13:34.398Z,99716.78
2023-07-20T04:16:02.163Z,99707.66
2023-07-20T04:18:29.833Z,99707.53
2023-07-20T04:20:57.533Z,99709.25
2023-07-20T04:23:25.171Z,99720.13
2023-07-20T04:25:54.703Z,99719.81
2023-07-20T04:28:22.353Z,99710.66
2023-07-20T04:30:52.425Z,99745.63
2023-07-20T04:33:20.432Z,99717.13
2023-07-20T04:35:51.269Z,99730.34
2023-07-20T04:38:19.372Z,99727.97
2023-07-20T04:40:47.833Z,99730.75
2023-07-20T04:43:17.308Z,99724.25
2023-07-20T04:45:44.948Z,99719.75
2023-07-20T04:48:14.166Z,99730.91
2023-07-20T04:50:42.705Z,99735.69
2023-07-20T04:53:11.263Z,99730.38
2023-07-20T04:55:39.285Z,99725.88
2023-07-20T04:58:07.419Z,99714.09
2023-07-20T05:00:36.666Z,99719.97
2023-07-20T05:03:06.387Z,99735.69
2023-07-20T05:05:34.287Z,99736.41
2023-07-20T05:08:01.882Z,99711.78
2023-07-20T05:10:29.567Z,99715.91
2023-07-20T05:12:57.191Z,99726.63
2023-07-20T05:15:24.840Z,99720.91
2023-07-20T05:17:53.824Z,99728.28
2023-07-20T05:20:22.144Z,99731.88
2023-07-20T05:22:50.283Z,99735.63
2023-07-20T05:25:19.850Z,99734.59
2023-07-20T05:27:47.753Z,99742.56
2023-07-20T05:30:15.366Z,99741.06
2023-07-20T05:32:43.032Z,99755.72
2023-07-20T05:35:12.958Z,99742.91
2023-07-20T05:37:40.600Z,99747.59
2023-07-20T05:40:11.224Z,99757.50
2023-07-20T05:42:39.142Z,99734.16
2023-07-20T05:45:08.494Z,99752.31
2023-07-20T05:47:36.171Z,99730.94
2023-07-20T05:50:04.617Z,99748.19
2023-07-20T05:52:34.064Z,99732.94
2023-07-20T05:55:01.694Z,99739.75
2023-07-20T05:57:29.317Z,99747.66
2023-07-20T05:59:56.923Z,99796.94
2023-07-20T06:02:24.610Z,99758.00
2023-07-20T06:04:52.205Z,99773.63
2023-07-20T06:07:19.916Z,99773.34
2023-07-20T06:09:48.858Z,99788.81
2023-07-20T06:12:16.447Z,99788.22
2023-07-20T06:14:44.321Z,99780.97
2023-07-20T06:17:11.981Z,99787.94
2023-07-20T06:19:39.600Z,99789.69
2023-07-20T06:22:07.560Z,99785.28
2023-07-20T06:24:35.180Z,99807.38
2023-07-20T06:27:04.385Z,99782.16
2023-07-20T06:29:32.012Z,99805.31
2023-07-20T06:31:59.649Z,99802.97
2023-07-20T06:34:27.228Z,99774.84
2023-07-20T06:36:54.836Z,99797.91
2023-07-20T06:41:55.632Z,99779.97
2023-07-20T06:44:24.925Z,99782.53
2023-07-20T06:46:52.519Z,99778.13
2023-07-20T06:49:26.943Z,99789.84
2023-07-20T06:51:54.777Z,99775.59
2023-07-20T06:54:24.080Z,99772.97
2023-07-20T06:57:17.010Z,99789.41
2023-07-20T06:59:41.690Z,99785.72
2023-07-20T07:02:14.627Z,99779.56
2023-07-20T07:04:43.178Z,99796.31
2023-07-20T07:07:11.209Z,99778.38
2023-07-20T07:09:38.872Z,99778.00
2023-07-20T07:12:07.609Z,99785.47
2023-07-20T07:14:35.896Z,99791.50
2023-07-20T07:17:05.835Z,99778.31
2023-07-20T07:19:33.782Z,99769.50
2023-07-20T07:22:01.452Z,99782.06
2023-07-20T07:24:34.698Z,99774.22
2023-07-20T07:27:02.484Z,99781.66
2023-07-20T07:29:30.487Z,99777.34
2023-07-20T07:31:58.209Z,99791.31
2023-07-20T07:34:27.493Z,99783.88
2023-07-20T07:36:55.213Z,99780.88
2023-07-20T07:41:53.490Z,99782.75
2023-07-20T07:44:22.317Z,99786.34
2023-07-20T07:46:50.174Z,99811.16
2023-07-20T07:49:17.949Z,99801.56
2023-07-20T07:51:47.298Z,99817.69
2023-07-20T07:54:14.938Z,99793.28
2023-07-20T07:56:43.927Z,99823.81
2023-07-20T07:59:12.348Z,99795.31
2023-07-20T08:01:39.995Z,99766.25
2023-07-20T08:04:07.737Z,99798.09
2023-07-20T08:06:35.542Z,99801.75
2023-07-20T08:09:04.756Z,99801.03
2023-07-20T08:11:34.649Z,99795.28
2023-07-20T08:14:02.550Z,99828.50
2023-07-20T08:16:30.701Z,99792.75
2023-07-20T08:18:58.701Z,99819.28
2023-07-20T08:21:26.532Z,99829.72
2023-07-20T08:23:54.155Z,99829.50
2023-07-20T08:26:24.106Z,99871.16
2023-07-20T08:28:51.921Z,99854.53
2023-07-20T08:31:19.573Z,99844.06
2023-07-20T08:33:47.223Z,99863.91
2023-07-20T08:36:14.818Z,99854.06
2023-07-20T08:38:42.561Z,99886.41
2023-07-20T08:41:11.244Z,99879.41
2023-07-20T08:43:44.742Z,99832.31
2023-07-20T08:46:13.681Z,99883.00
2023-07-20T08:48:42.925Z,99878.63
2023-07-20T08:51:12.521Z,99850.09
2023-07-20T08:53:40.934Z,99881.16
2023-07-20T08:56:11.982Z,99847.97
2023-07-20T08:58:44.788Z,99896.94
2023-07-20T09:01:13.595Z,99900.94
2023-07-20T09:03:41.805Z,99861.63
2023-07-20T09:06:09.775Z,99869.31
2023-07-20T09:08:40.242Z,99893.88
2023-07-20T09:11:07.923Z,99887.16
2023-07-20T09:13:35.959Z,99876.31
2023-07-20T09:18:36.313Z,99899.19
2023-07-20T09:21:05.101Z,99908.03
2023-07-20T09:23:35.141Z,99872.09
2023-07-20T09:26:03.188Z,99871.81
2023-07-20T09:28:30.801Z,99867.88
2023-07-20T09:30:59.572Z,99894.41
2023-07-20T09:33:29.132Z,99868.97
2023-07-20T09:36:18.945Z,99879.03
2023-07-20T09:43:54.818Z,99881.94
2023-07-20T09:51:29.602Z,99942.09
2023-07-20T09:53:57.922Z,99885.03
2023-07-20T09:56:27.458Z,99917.44
2023-07-20T09:58:55.327Z,99883.69
2023-07-20T10:01:26.064Z,99927.03
2023-07-20T10:04:02.416Z,99949.66
2023-07-20T10:06:31.764Z,99913.31
2023-07-20T10:09:07.447Z,99861.78
2023-07-20T10:11:38.410Z,99895.91
2023-07-20T10:14:07.660Z,99938.72
2023-07-20T10:16:38.090Z,99884.38
2023-07-20T10:21:44.570Z,99925.50
2023-07-20T10:24:13.729Z,99893.97
2023-07-20T10:26:42.465Z,99851.97
2023-07-20T10:29:10.794Z,99868.97
2023-07-20T10:31:39.799Z,99845.03
2023-07-20T10:34:08.955Z,99879.28
2023-07-20T10:36:46.185Z,99839.63
2023-07-20T10:39:25.383Z,99847.97
2023-07-20T10:42:02.104Z,99853.31
2023-07-20T10:44:29.939Z,99856.00
2023-07-20T10:47:01.804Z,99865.13
2023-07-20T10:49:31.178Z,99910.41
2023-07-20T10:52:00.368Z,99861.97
2023-07-20T10:54:49.717Z,99886.44
2023-07-20T10:57:24.830Z,99859.78
2023-07-20T10:59:52.672Z,99943.56
2023-07-20T11:02:22.000Z,99864.66
2023-07-20T11:04:51.428Z,99933.13
2023-07-20T11:07:20.207Z,99918.69
2023-07-20T11:09:50.027Z,99866.94
2023-07-20T11:12:19.817Z,99820.50
2023-07-20T11:14:58.068Z,99905.72
2023-07-20T11:17:32.109Z,99841.81
2023-07-20T11:22:33.614Z,99848.78
2023-07-20T11:25:01.273Z,99823.66
2023-07-20T11:27:29.559Z,99891.41
2023-07-20T11:29:58.726Z,99842.84
2023-07-20T11:32:26.437Z,99881.50
2023-07-20T11:34:54.090Z,99864.75
2023-07-20T11:37:24.031Z,99849.59
2023-07-20T11:39:56.851Z,99880.88
2023-07-20T11:44:55.119Z,99920.19
2023-07-20T11:47:22.846Z,99797.66
2023-07-20T11:49:55.502Z,99822.56
2023-07-20T11:52:25.860Z,99867.72
2023-07-20T11:54:54.588Z,99821.03
2023-07-20T11:57:22.828Z,99901.25
2023-07-20T11:59:58.381Z,99910.22
2023-07-20T12:02:27.197Z,99898.72
2023-07-20T12:04:56.281Z,99810.47
2023-07-20T12:07:26.081Z,99808.94
2023-07-20T12:10:05.511Z,99821.50
2023-07-20T12:12:33.656Z,99848.84
2023-07-20T12:15:17.584Z,99834.22
2023-07-20T12:17:45.982Z,99834.47
2023-07-20T12:20:15.137Z,99830.41
2023-07-20T12:22:45.761Z,99861.88
2023-07-20T12:25:13.420Z,99893.31
2023-07-20T12:27:41.251Z,99897.97
2023-07-20T12:30:09.967Z,99913.59
2023-07-20T12:32:37.564Z,99802.44
2023-07-20T12:35:05.724Z,99789.13
2023-07-20T12:37:33.712Z,99891.81
2023-07-20T12:40:02.684Z,99924.78
2023-07-20T12:42:30.431Z,99837.94
2023-07-20T12:44:58.054Z,99826.56
2023-07-20T12:47:25.804Z,99870.97
2023-07-20T12:49:53.492Z,99837.31
2023-07-20T12:52:21.100Z,99810.38
2023-07-20T12:54:48.701Z,99857.25
2023-07-20T12:57:17.629Z,99762.66
2023-07-20T12:59:45.226Z,99770.13
2023-07-20T13:02:12.828Z,99809.50
2023-07-20T13:04:40.465Z,99773.06
2023-07-20T13:09:42.474Z,99827.44
2023-07-20T13:12:10.809Z,99880.69
2023-07-20T13:14:39.717Z,99796.06
2023-07-20T13:17:07.624Z,99891.72
2023-07-20T13:19:38.310Z,99886.38
2023-07-20T13:22:06.584Z,99866.56
2023-07-20T13:24:34.294Z,99901.16
2023-07-20T13:27:02.041Z,99818.38
2023-07-20T13:29:29.767Z,99810.88
2023-07-20T13:31:58.786Z,99828.72
2023-07-20T13:34:29.824Z,99837.88
2023-07-20T13:37:00.006Z,99801.75
2023-07-20T13:39:28.890Z,99825.22
2023-07-20T13:41:56.944Z,99836.06
2023-07-20T13:44:24.736Z,99832.84
2023-07-20T13:46:52.925Z,99826.72
2023-07-20T13:49:25.100Z,99818.63
2023-07-20T13:56:53.797Z,99830.97
2023-07-20T13:59:21.457Z,99821.38
2023-07-20T14:01:49.121Z,99833.88
2023-07-20T14:04:17.017Z,99862.50
2023-07-20T14:06:46.310Z,99818.50
2023-07-20T14:09:14.024Z,99817.44
2023-07-20T14:14:12.683Z,99795.06
2023-07-20T14:16:40.382Z,99838.38
2023-07-20T14:19:08.033Z,99840.22
2023-07-20T14:21:35.699Z,99785.94
2023-07-20T14:24:05.384Z,99782.66
2023-07-20T14:26:33.983Z,99781.75
2023-07-20T14:29:02.607Z,99812.50
2023-07-20T14:31:30.356Z,99808.34
2023-07-20T14:33:58.314Z,99778.31
2023-07-20T14:36:27.869Z,99817.09
2023-07-20T14:38:55.653Z,99805.88
2023-07-20T14:41:24.594Z,99767.59
2023-07-20T14:43:52.259Z,99770.94
2023-07-20T14:46:21.475Z,99789.19
2023-07-20T14:48:49.752Z,99786.34
2023-07-20T14:51:17.361Z,99805.63
2023-07-20T14:53:44.968Z,99780.00
2023-07-20T14:56:12.620Z,99811.63
2023-07-20T14:58:41.615Z,99794.91
2023-07-20T15:01:09.252Z,99784.97
2023-07-20T15:03:36.872Z,99840.81
2023-07-20T15:06:04.751Z,99812.50
2023-07-20T15:08:32.768Z,99796.50
2023-07-20T15:11:00.398Z,99780.22
2023-07-20T15:13:29.241Z,99787.63
2023-07-20T15:15:58.990Z,99780.31
2023-07-20T15:18:41.456Z,99777.78
2023-07-20T15:21:14.463Z,99828.03
2023-07-20T15:23:42.155Z,99785.22
2023-07-20T15:26:09.972Z,99775.28
2023-07-20T15:28:37.577Z,99829.66
2023-07-20T15:31:07.127Z,99783.63
2023-07-20T15:33:35.203Z,99778.94
2023-07-20T15:36:02.951Z,99758.81
2023-07-20T15:38:30.572Z,99782.66
2023-07-20T15:41:01.584Z,99772.75
2023-07-20T15:43:29.260Z,99766.00
2023-07-20T15:46:37.329Z,99789.06
2023-07-20T15:49:06.345Z,99770.69
2023-07-20T15:51:34.550Z,99791.94
2023-07-20T15:54:02.154Z,99796.78
2023-07-20T15:56:28.774Z,99785.63
2023-07-20T15:58:56.378Z,99800.91
2023-07-20T16:01:24.259Z,99785.31
2023-07-20T16:03:52.253Z,99748.31
2023-07-20T16:06:21.348Z,99801.22
2023-07-20T16:08:49.115Z,99772.66
2023-07-20T16:11:16.719Z,99784.13
2023-07-20T16:13:45.280Z,99756.28
2023-07-20T16:16:13.279Z,99749.72
2023-07-20T16:18:40.942Z,99752.72
2023-07-20T16:21:08.585Z,99772.88
2023-07-20T16:23:37.578Z,99758.41
2023-07-20T16:26:05.262Z,99756.91
2023-07-20T16:28:32.918Z,99759.06
2023-07-20T16:31:00.887Z,99771.41
2023-07-20T16:33:31.518Z,99758.19
2023-07-20T16:35:59.399Z,99770.69
2023-07-20T16:38:27.154Z,99773.84
2023-07-20T16:40:58.863Z,99804.59
2023-07-20T16:46:01.015Z,99760.28
2023-07-20T16:48:28.777Z,99767.16
2023-07-20T16:50:56.903Z,99746.13
2023-07-20T16:53:24.614Z,99772.16
2023-07-20T16:55:53.241Z,99775.66
2023-07-20T16:58:22.496Z,99755.91
2023-07-20T17:00:50.506Z,99742.03
2023-07-20T17:03:19.347Z,99742.53
2023-07-20T17:05:47.519Z,99762.88
2023-07-20T17:08:15.658Z,99748.22
2023-07-20T17:10:43.516Z,99757.72
2023-07-20T17:13:11.935Z,99788.69
2023-07-20T17:15:40.910Z,99747.50
2023-07-20T17:18:08.636Z,99773.81
2023-07-20T17:23:06.854Z,99780.16
2023-07-20T17:25:34.539Z,99757.38
2023-07-20T17:30:32.682Z,99748.00
2023-07-20T17:33:01.639Z,99763.19
2023-07-20T17:35:29.992Z,99756.22
2023-07-20T17:45:30.938Z,99759.16
2023-07-20T17:47:58.640Z,99758.75
2023-07-20T17:50:29.056Z,99753.88
2023-07-20T17:52:57.010Z,99723.38
2023-07-20T17:55:24.773Z,99727.72
2023-07-20T17:57:52.444Z,99747.25
2023-07-20T18:02:51.207Z,99742.53
2023-07-20T18:05:18.964Z,99752.88
2023-07-20T18:07:47.923Z,99742.28
2023-07-20T18:10:16.136Z,99751.00
2023-07-20T18:12:43.943Z,99712.13
2023-07-20T18:15:11.817Z,99743.28
2023-07-20T18:17:40.735Z,99714.41
2023-07-20T18:20:10.587Z,99717.41
2023-07-20T18:22:39.212Z,99717.53
2023-07-20T18:25:09.184Z,99731.09
2023-07-20T18:27:38.075Z,99721.50
2023-07-20T18:30:07.391Z,99702.19
2023-07-20T18:32:35.234Z,99717.72
2023-07-20T18:35:03.801Z,99714.19
2023-07-20T18:37:31.414Z,99721.31
2023-07-20T18:39:59.166Z,99717.66
2023-07-20T18:42:28.117Z,99724.38
2023-07-20T18:44:55.734Z,99742.31
2023-07-20T18:47:23.334Z,99733.84
2023-07-20T18:49:53.980Z,99749.72
2023-07-20T18:52:22.399Z,99751.19
2023-07-20T18:54:50.016Z,99744.81
2023-07-20T18:57:17.658Z,99749.03
2023-07-20T18:59:46.628Z,99754.34
2023-07-20T19:02:14.252Z,99744.63
2023-07-20T19:04:41.907Z,99716.53
2023-07-20T19:07:09.503Z,99714.34
2023-07-20T19:09:37.124Z,99717.63
2023-07-20T19:12:05.270Z,99725.22
2023-07-20T19:14:32.893Z,99729.13
2023-07-20T19:17:01.854Z,99733.84
2023-07-20T19:19:32.269Z,99733.38
2023-07-20T19:22:00.377Z,99729.59
2023-07-20T19:24:28.003Z,99739.81
2023-07-20T19:26:55.603Z,99738.25
2023-07-20T19:29:23.174Z,99737.41
2023-07-20T19:31:50.835Z,99738.81
2023-07-20T19:34:19.780Z,99741.97
2023-07-20T19:36:50.220Z,99758.28
2023-07-20T19:39:17.883Z,99751.50
2023-07-20T19:41:45.482Z,99768.84
2023-07-20T19:44:13.137Z,99792.59
2023-07-20T19:46:40.936Z,99759.00
2023-07-20T19:49:08.837Z,99751.81
2023-07-20T19:51:38.918Z,99748.53
2023-07-20T19:56:37.534Z,99769.03
2023-07-20T19:59:06.074Z,99761.97
2023-07-20T20:06:34.777Z,99775.47
2023-07-20T20:09:03.918Z,99772.53
2023-07-20T20:11:31.520Z,99772.56
2023-07-20T20:13:59.145Z,99781.00
2023-07-20T20:16:26.993Z,99780.88
2023-07-20T20:18:54.830Z,99786.63
2023-07-20T20:21:23.203Z,99784.28
2023-07-20T20:23:51.142Z,99779.28
2023-07-20T20:26:20.230Z,99790.53
2023-07-20T20:28:47.947Z,99787.81
2023-07-20T20:31:15.722Z,99791.28
2023-07-20T20:33:43.442Z,99785.69
2023-07-20T20:36:11.077Z,99811.59
2023-07-20T20:38:38.706Z,99798.69
2023-07-20T20:41:08.702Z,99819.16
2023-07-20T20:43:37.753Z,99794.66
2023-07-20T20:46:06.728Z,99795.44
2023-07-20T20:48:38.609Z,99797.44
2023-07-20T20:51:06.718Z,99788.59
2023-07-20T20:53:34.362Z,99794.94
2023-07-20T20:56:02.334Z,99791.28
2023-07-20T20:58:29.952Z,99798.78
2023-07-20T21:01:02.784Z,99788.72
2023-07-20T21:03:31.046Z,99783.94
2023-07-20T21:05:59.203Z,99794.91
2023-07-20T21:08:28.319Z,99786.09
2023-07-20T21:10:59.607Z,99786.72
2023-07-20T21:13:27.309Z,99783.25
2023-07-20T21:15:55.607Z,99779.25
2023-07-20T21:18:24.586Z,99793.19
2023-07-20T21:20:52.298Z,99780.47
2023-07-20T21:23:21.014Z,99775.50
2023-07-20T21:25:49.228Z,99788.00
2023-07-20T21:28:18.431Z,99779.59
2023-07-20T21:30:47.458Z,99780.53
2023-07-20T21:33:15.331Z,99780.31
2023-07-20T21:35:45.065Z,99782.63
2023-07-20T21:38:13.017Z,99790.13
2023-07-20T21:40:41.008Z,99794.47
2023-07-20T21:43:09.058Z,99789.06
2023-07-20T21:45:36.732Z,99788.28
2023-07-20T21:48:04.606Z,99803.06
2023-07-20T21:50:32.253Z,99796.47
2023-07-20T21:53:01.203Z,99797.19
2023-07-20T21:55:29.064Z,99797.13
2023-07-20T21:57:56.730Z,99794.88
2023-07-20T22:00:25.969Z,99792.63
2023-07-20T22:02:54.098Z,99795.50
2023-07-20T22:05:22.430Z,99789.72
2023-07-20T22:07:50.423Z,99786.34
2023-07-20T22:10:32.546Z,99790.94
2023-07-20T22:13:00.526Z,99784.28
2023-07-20T22:15:28.498Z,99792.63
2023-07-20T22:17:56.126Z,99785.88
2023-07-20T22:20:25.421Z,99794.63
2023-07-20T22:22:53.054Z,99802.44
2023-07-20T22:25:22.458Z,99782.56
2023-07-20T22:27:50.111Z,99782.84
2023-07-20T22:30:20.405Z,99784.16
2023-07-20T22:32:48.608Z,99782.91
2023-07-20T22:35:16.312Z,99778.75
2023-07-20T22:37:43.994Z,99782.09
2023-07-20T22:40:12.369Z,99784.75
2023-07-20T22:42:41.730Z,99795.69
2023-07-20T22:45:10.800Z,99779.66
2023-07-20T22:47:39.581Z,99792.59
2023-07-20T22:50:08.735Z,99783.03
2023-07-20T22:52:36.960Z,99786.63
2023-07-20T22:55:05.851Z,99778.16
2023-07-20T22:57:34.199Z,99780.91
2023-07-20T23:00:14.346Z,99769.50
2023-07-20T23:02:43.600Z,99764.22
2023-07-20T23:05:11.487Z,99776.56
2023-07-20T23:07:41.250Z,99773.84
2023-07-20T23:10:10.874Z,99776.97
2023-07-20T23:12:38.605Z,99765.69
2023-07-20T23:15:09.936Z,99771.97
2023-07-20T23:17:37.625Z,99769.28
2023-07-20T23:20:08.244Z,99757.50
2023-07-20T23:22:35.835Z,99755.94
2023-07-20T23:25:03.831Z,99756.34
2023-07-20T23:27:31.470Z,99776.16
2023-07-20T23:29:59.111Z,99765.88
2023-07-20T23:32:28.109Z,99777.25
2023-07-20T23:34:55.938Z,99771.69
2023-07-20T23:37:23.540Z,99773.25
2023-07-20T23:39:53.226Z,99770.53
2023-07-20T23:42:21.078Z,99774.59
2023-07-20T23:44:48.955Z,99762.84
2023-07-20T23:47:16.992Z,99767.38
2023-07-20T23:49:46.012Z,99771.56
2023-07-20T23:52:13.691Z,99757.41
2023-07-20T23:54:41.301Z,99755.22
2023-07-20T23:57:08.971Z,99756.50
2023-07-20T23:59:38.627Z,99744.69
